sensor_id;sensor_type;location;lat;lon;timestamp;P1;durP1;ratioP1;P2;durP2;ratioP2
65835;SDS011;52595;51.608;7.216;2023-12-22T00:01:54;8.73;;;1.80;;
65835;SDS011;52595;51.608;7.216;2023-12-22T00:04:19;7.00;;;1.65;;
65835;SDS011;52595;51.608;7.216;2023-12-22T00:06:44;8.45;;;1.38;;
65835;SDS011;52595;51.608;7.216;2023-12-22T00:09:13;14.32;;;1.40;;
65835;SDS011;52595;51.608;7.216;2023-12-22T00:11:38;6.57;;;1.63;;
65835;SDS011;52595;51.608;7.216;2023-12-22T00:14:03;9.43;;;1.60;;
65835;SDS011;52595;51.608;7.216;2023-12-22T00:16:29;10.70;;;1.90;;
65835;SDS011;52595;51.608;7.216;2023-12-22T00:18:55;5.78;;;1.20;;
65835;SDS011;52595;51.608;7.216;2023-12-22T00:21:21;8.90;;;1.88;;
65835;SDS011;52595;51.608;7.216;2023-12-22T00:23:47;5.60;;;1.20;;
65835;SDS011;52595;51.608;7.216;2023-12-22T00:26:12;6.55;;;1.20;;
65835;SDS011;52595;51.608;7.216;2023-12-22T00:28:40;5.53;;;1.40;;
65835;SDS011;52595;51.608;7.216;2023-12-22T00:31:06;7.95;;;1.60;;
65835;SDS011;52595;51.608;7.216;2023-12-22T00:33:32;9.95;;;1.50;;
65835;SDS011;52595;51.608;7.216;2023-12-22T00:35:57;8.00;;;1.63;;
65835;SDS011;52595;51.608;7.216;2023-12-22T00:38:23;8.40;;;1.60;;
65835;SDS011;52595;51.608;7.216;2023-12-22T00:40:48;4.07;;;1.20;;
65835;SDS011;52595;51.608;7.216;2023-12-22T00:43:14;9.55;;;2.47;;
65835;SDS011;52595;51.608;7.216;2023-12-22T00:45:39;8.30;;;1.48;;
65835;SDS011;52595;51.608;7.216;2023-12-22T00:48:04;7.55;;;1.88;;
65835;SDS011;52595;51.608;7.216;2023-12-22T00:50:30;9.90;;;1.75;;
65835;SDS011;52595;51.608;7.216;2023-12-22T00:52:55;4.18;;;1.75;;
65835;SDS011;52595;51.608;7.216;2023-12-22T00:55:20;5.85;;;1.52;;
65835;SDS011;52595;51.608;7.216;2023-12-22T00:57:46;6.05;;;1.70;;
65835;SDS011;52595;51.608;7.216;2023-12-22T01:00:11;5.85;;;1.27;;
65835;SDS011;52595;51.608;7.216;2023-12-22T01:02:37;7.68;;;1.70;;
65835;SDS011;52595;51.608;7.216;2023-12-22T01:05:03;4.72;;;1.40;;
65835;SDS011;52595;51.608;7.216;2023-12-22T01:07:29;4.43;;;1.42;;
65835;SDS011;52595;51.608;7.216;2023-12-22T01:09:54;5.47;;;1.45;;
65835;SDS011;52595;51.608;7.216;2023-12-22T01:12:20;5.82;;;1.30;;
65835;SDS011;52595;51.608;7.216;2023-12-22T01:14:45;4.85;;;1.40;;
65835;SDS011;52595;51.608;7.216;2023-12-22T01:17:11;9.18;;;1.50;;
65835;SDS011;52595;51.608;7.216;2023-12-22T01:19:36;6.15;;;1.58;;
65835;SDS011;52595;51.608;7.216;2023-12-22T01:22:01;7.75;;;1.67;;
65835;SDS011;52595;51.608;7.216;2023-12-22T01:24:27;5.88;;;1.50;;
65835;SDS011;52595;51.608;7.216;2023-12-22T01:26:52;9.82;;;2.00;;
65835;SDS011;52595;51.608;7.216;2023-12-22T01:29:18;6.88;;;1.40;;
65835;SDS011;52595;51.608;7.216;2023-12-22T01:31:43;12.10;;;1.77;;
65835;SDS011;52595;51.608;7.216;2023-12-22T01:34:09;13.27;;;1.73;;
65835;SDS011;52595;51.608;7.216;2023-12-22T01:36:34;6.97;;;1.88;;
65835;SDS011;52595;51.608;7.216;2023-12-22T01:39:00;11.13;;;1.80;;
65835;SDS011;52595;51.608;7.216;2023-12-22T01:41:25;8.55;;;1.52;;
65835;SDS011;52595;51.608;7.216;2023-12-22T01:43:50;10.55;;;2.50;;
65835;SDS011;52595;51.608;7.216;2023-12-22T01:46:16;5.82;;;1.50;;
65835;SDS011;52595;51.608;7.216;2023-12-22T01:48:42;3.88;;;1.33;;
65835;SDS011;52595;51.608;7.216;2023-12-22T01:51:07;5.35;;;1.38;;
65835;SDS011;52595;51.608;7.216;2023-12-22T01:53:33;9.27;;;1.60;;
65835;SDS011;52595;51.608;7.216;2023-12-22T01:55:59;9.48;;;1.70;;
65835;SDS011;52595;51.608;7.216;2023-12-22T01:58:26;6.20;;;1.50;;
65835;SDS011;52595;51.608;7.216;2023-12-22T02:00:53;3.53;;;1.15;;
65835;SDS011;52595;51.608;7.216;2023-12-22T02:03:19;5.95;;;1.40;;
65835;SDS011;52595;51.608;7.216;2023-12-22T02:05:44;6.03;;;1.73;;
65835;SDS011;52595;51.608;7.216;2023-12-22T02:08:11;6.00;;;0.90;;
65835;SDS011;52595;51.608;7.216;2023-12-22T02:10:36;2.90;;;1.10;;
65835;SDS011;52595;51.608;7.216;2023-12-22T02:13:03;3.22;;;0.80;;
65835;SDS011;52595;51.608;7.216;2023-12-22T02:15:29;6.05;;;1.45;;
65835;SDS011;52595;51.608;7.216;2023-12-22T02:17:57;2.47;;;0.82;;
65835;SDS011;52595;51.608;7.216;2023-12-22T02:20:27;2.15;;;0.73;;
65835;SDS011;52595;51.608;7.216;2023-12-22T02:22:54;4.57;;;0.95;;
65835;SDS011;52595;51.608;7.216;2023-12-22T02:25:19;3.75;;;1.10;;
65835;SDS011;52595;51.608;7.216;2023-12-22T02:27:49;3.80;;;1.02;;
65835;SDS011;52595;51.608;7.216;2023-12-22T02:33:05;2.33;;;0.88;;
65835;SDS011;52595;51.608;7.216;2023-12-22T02:35:33;3.85;;;1.13;;
65835;SDS011;52595;51.608;7.216;2023-12-22T02:38:01;4.80;;;1.52;;
65835;SDS011;52595;51.608;7.216;2023-12-22T02:40:28;6.55;;;0.98;;
65835;SDS011;52595;51.608;7.216;2023-12-22T02:42:55;2.72;;;1.35;;
65835;SDS011;52595;51.608;7.216;2023-12-22T02:45:20;7.28;;;1.30;;
65835;SDS011;52595;51.608;7.216;2023-12-22T02:47:46;6.35;;;1.27;;
65835;SDS011;52595;51.608;7.216;2023-12-22T02:50:13;7.00;;;1.48;;
65835;SDS011;52595;51.608;7.216;2023-12-22T02:52:39;3.63;;;1.33;;
65835;SDS011;52595;51.608;7.216;2023-12-22T02:55:05;7.60;;;1.25;;
65835;SDS011;52595;51.608;7.216;2023-12-22T02:57:31;2.42;;;1.05;;
65835;SDS011;52595;51.608;7.216;2023-12-22T02:59:56;4.25;;;1.10;;
65835;SDS011;52595;51.608;7.216;2023-12-22T03:02:22;3.53;;;0.98;;
65835;SDS011;52595;51.608;7.216;2023-12-22T03:04:47;3.90;;;0.90;;
65835;SDS011;52595;51.608;7.216;2023-12-22T03:07:13;8.77;;;1.38;;
65835;SDS011;52595;51.608;7.216;2023-12-22T03:09:39;3.60;;;1.13;;
65835;SDS011;52595;51.608;7.216;2023-12-22T03:12:09;5.18;;;1.48;;
65835;SDS011;52595;51.608;7.216;2023-12-22T03:14:34;5.82;;;1.33;;
65835;SDS011;52595;51.608;7.216;2023-12-22T03:17:01;3.60;;;1.17;;
65835;SDS011;52595;51.608;7.216;2023-12-22T03:19:30;4.30;;;1.10;;
65835;SDS011;52595;51.608;7.216;2023-12-22T03:21:56;2.90;;;0.90;;
65835;SDS011;52595;51.608;7.216;2023-12-22T03:24:24;5.20;;;1.15;;
65835;SDS011;52595;51.608;7.216;2023-12-22T03:26:50;6.65;;;1.33;;
65835;SDS011;52595;51.608;7.216;2023-12-22T03:29:16;5.95;;;1.00;;
65835;SDS011;52595;51.608;7.216;2023-12-22T03:31:42;3.22;;;0.88;;
65835;SDS011;52595;51.608;7.216;2023-12-22T03:34:08;2.40;;;1.10;;
65835;SDS011;52595;51.608;7.216;2023-12-22T03:36:33;3.67;;;1.08;;
65835;SDS011;52595;51.608;7.216;2023-12-22T03:38:59;3.53;;;1.00;;
65835;SDS011;52595;51.608;7.216;2023-12-22T03:41:24;4.15;;;1.08;;
65835;SDS011;52595;51.608;7.216;2023-12-22T03:43:50;5.57;;;1.08;;
65835;SDS011;52595;51.608;7.216;2023-12-22T03:46:15;2.83;;;0.90;;
65835;SDS011;52595;51.608;7.216;2023-12-22T03:48:40;2.08;;;0.98;;
65835;SDS011;52595;51.608;7.216;2023-12-22T03:51:06;7.20;;;1.15;;
65835;SDS011;52595;51.608;7.216;2023-12-22T03:53:31;4.70;;;1.25;;
65835;SDS011;52595;51.608;7.216;2023-12-22T03:55:57;5.05;;;1.70;;
65835;SDS011;52595;51.608;7.216;2023-12-22T03:58:22;10.40;;;1.52;;
65835;SDS011;52595;51.608;7.216;2023-12-22T04:00:48;7.25;;;1.77;;
65835;SDS011;52595;51.608;7.216;2023-12-22T04:03:13;6.28;;;1.50;;
65835;SDS011;52595;51.608;7.216;2023-12-22T04:05:39;11.20;;;3.05;;
65835;SDS011;52595;51.608;7.216;2023-12-22T04:08:04;6.35;;;1.48;;
65835;SDS011;52595;51.608;7.216;2023-12-22T04:10:30;4.85;;;1.20;;
65835;SDS011;52595;51.608;7.216;2023-12-22T04:12:56;1.73;;;0.90;;
65835;SDS011;52595;51.608;7.216;2023-12-22T04:15:21;1.90;;;0.65;;
65835;SDS011;52595;51.608;7.216;2023-12-22T04:17:47;2.72;;;0.88;;
65835;SDS011;52595;51.608;7.216;2023-12-22T04:20:12;3.97;;;1.08;;
65835;SDS011;52595;51.608;7.216;2023-12-22T04:22:38;3.55;;;1.00;;
65835;SDS011;52595;51.608;7.216;2023-12-22T04:25:04;4.25;;;1.05;;
65835;SDS011;52595;51.608;7.216;2023-12-22T04:27:30;7.80;;;1.40;;
65835;SDS011;52595;51.608;7.216;2023-12-22T04:29:56;6.55;;;1.73;;
65835;SDS011;52595;51.608;7.216;2023-12-22T04:32:21;4.75;;;1.00;;
65835;SDS011;52595;51.608;7.216;2023-12-22T04:34:47;4.25;;;1.08;;
65835;SDS011;52595;51.608;7.216;2023-12-22T04:37:12;3.78;;;1.00;;
65835;SDS011;52595;51.608;7.216;2023-12-22T04:39:37;4.43;;;1.10;;
65835;SDS011;52595;51.608;7.216;2023-12-22T04:42:03;5.85;;;1.23;;
65835;SDS011;52595;51.608;7.216;2023-12-22T04:44:28;4.70;;;1.00;;
65835;SDS011;52595;51.608;7.216;2023-12-22T04:46:54;6.40;;;1.10;;
65835;SDS011;52595;51.608;7.216;2023-12-22T04:49:19;6.13;;;1.27;;
65835;SDS011;52595;51.608;7.216;2023-12-22T04:51:44;4.43;;;1.10;;
65835;SDS011;52595;51.608;7.216;2023-12-22T04:54:10;5.97;;;1.98;;
65835;SDS011;52595;51.608;7.216;2023-12-22T04:56:35;7.32;;;1.80;;
65835;SDS011;52595;51.608;7.216;2023-12-22T04:59:01;5.22;;;1.65;;
65835;SDS011;52595;51.608;7.216;2023-12-22T05:01:26;6.57;;;1.27;;
65835;SDS011;52595;51.608;7.216;2023-12-22T05:03:51;7.40;;;1.10;;
65835;SDS011;52595;51.608;7.216;2023-12-22T05:06:18;6.30;;;1.58;;
65835;SDS011;52595;51.608;7.216;2023-12-22T05:08:44;16.20;;;1.67;;
65835;SDS011;52595;51.608;7.216;2023-12-22T05:11:09;6.75;;;1.42;;
65835;SDS011;52595;51.608;7.216;2023-12-22T05:13:34;4.97;;;1.20;;
65835;SDS011;52595;51.608;7.216;2023-12-22T05:16:00;5.45;;;1.42;;
65835;SDS011;52595;51.608;7.216;2023-12-22T05:18:25;6.38;;;1.63;;
65835;SDS011;52595;51.608;7.216;2023-12-22T05:20:51;8.98;;;1.48;;
65835;SDS011;52595;51.608;7.216;2023-12-22T05:23:18;3.38;;;1.30;;
65835;SDS011;52595;51.608;7.216;2023-12-22T05:25:44;7.65;;;1.50;;
65835;SDS011;52595;51.608;7.216;2023-12-22T05:28:09;5.53;;;1.40;;
65835;SDS011;52595;51.608;7.216;2023-12-22T05:30:34;5.25;;;1.30;;
65835;SDS011;52595;51.608;7.216;2023-12-22T05:33:00;8.63;;;1.60;;
65835;SDS011;52595;51.608;7.216;2023-12-22T05:35:25;1.88;;;0.82;;
65835;SDS011;52595;51.608;7.216;2023-12-22T05:37:51;5.22;;;1.42;;
65835;SDS011;52595;51.608;7.216;2023-12-22T05:40:16;10.85;;;1.85;;
65835;SDS011;52595;51.608;7.216;2023-12-22T05:42:41;8.85;;;1.45;;
65835;SDS011;52595;51.608;7.216;2023-12-22T05:45:07;6.50;;;1.20;;
65835;SDS011;52595;51.608;7.216;2023-12-22T05:47:33;6.45;;;1.48;;
65835;SDS011;52595;51.608;7.216;2023-12-22T05:49:58;6.15;;;2.05;;
65835;SDS011;52595;51.608;7.216;2023-12-22T05:52:24;4.47;;;1.40;;
65835;SDS011;52595;51.608;7.216;2023-12-22T05:54:50;7.30;;;1.58;;
65835;SDS011;52595;51.608;7.216;2023-12-22T05:57:15;7.53;;;1.30;;
65835;SDS011;52595;51.608;7.216;2023-12-22T05:59:41;8.35;;;1.60;;
65835;SDS011;52595;51.608;7.216;2023-12-22T06:02:07;14.32;;;1.77;;
65835;SDS011;52595;51.608;7.216;2023-12-22T06:04:32;5.60;;;1.50;;
65835;SDS011;52595;51.608;7.216;2023-12-22T06:06:57;7.65;;;1.45;;
65835;SDS011;52595;51.608;7.216;2023-12-22T06:09:23;2.58;;;1.27;;
65835;SDS011;52595;51.608;7.216;2023-12-22T06:11:48;7.72;;;1.90;;
65835;SDS011;52595;51.608;7.216;2023-12-22T06:14:14;7.10;;;1.33;;
65835;SDS011;52595;51.608;7.216;2023-12-22T06:16:39;10.77;;;1.98;;
65835;SDS011;52595;51.608;7.216;2023-12-22T06:19:05;7.00;;;1.38;;
65835;SDS011;52595;51.608;7.216;2023-12-22T06:21:30;6.30;;;1.30;;
65835;SDS011;52595;51.608;7.216;2023-12-22T06:23:56;7.90;;;1.55;;
65835;SDS011;52595;51.608;7.216;2023-12-22T06:26:21;10.70;;;1.85;;
65835;SDS011;52595;51.608;7.216;2023-12-22T06:28:47;6.07;;;1.48;;
65835;SDS011;52595;51.608;7.216;2023-12-22T06:31:19;9.45;;;1.67;;
65835;SDS011;52595;51.608;7.216;2023-12-22T06:33:46;12.25;;;2.20;;
65835;SDS011;52595;51.608;7.216;2023-12-22T06:36:24;7.28;;;1.55;;
65835;SDS011;52595;51.608;7.216;2023-12-22T06:38:50;4.80;;;1.42;;
65835;SDS011;52595;51.608;7.216;2023-12-22T06:41:20;7.63;;;1.75;;
65835;SDS011;52595;51.608;7.216;2023-12-22T06:43:50;8.88;;;1.70;;
65835;SDS011;52595;51.608;7.216;2023-12-22T06:46:19;5.43;;;1.30;;
65835;SDS011;52595;51.608;7.216;2023-12-22T06:48:45;6.88;;;1.75;;
65835;SDS011;52595;51.608;7.216;2023-12-22T06:51:24;12.60;;;2.28;;
65835;SDS011;52595;51.608;7.216;2023-12-22T06:53:51;12.68;;;2.47;;
65835;SDS011;52595;51.608;7.216;2023-12-22T06:56:21;4.97;;;1.50;;
65835;SDS011;52595;51.608;7.216;2023-12-22T06:58:47;11.65;;;2.28;;
65835;SDS011;52595;51.608;7.216;2023-12-22T07:01:33;11.48;;;1.70;;
65835;SDS011;52595;51.608;7.216;2023-12-22T07:04:00;15.43;;;2.53;;
65835;SDS011;52595;51.608;7.216;2023-12-22T07:06:27;12.50;;;3.15;;
65835;SDS011;52595;51.608;7.216;2023-12-22T07:11:22;9.50;;;2.53;;
65835;SDS011;52595;51.608;7.216;2023-12-22T07:13:47;5.85;;;1.83;;
65835;SDS011;52595;51.608;7.216;2023-12-22T07:16:13;13.80;;;1.83;;
65835;SDS011;52595;51.608;7.216;2023-12-22T07:18:38;10.82;;;2.03;;
65835;SDS011;52595;51.608;7.216;2023-12-22T07:21:04;8.73;;;1.88;;
65835;SDS011;52595;51.608;7.216;2023-12-22T07:23:29;18.77;;;2.40;;
65835;SDS011;52595;51.608;7.216;2023-12-22T07:25:55;13.85;;;2.38;;
65835;SDS011;52595;51.608;7.216;2023-12-22T07:28:20;10.13;;;2.25;;
65835;SDS011;52595;51.608;7.216;2023-12-22T07:30:45;10.98;;;2.40;;
65835;SDS011;52595;51.608;7.216;2023-12-22T07:33:11;16.35;;;2.03;;
65835;SDS011;52595;51.608;7.216;2023-12-22T07:35:36;13.20;;;2.80;;
65835;SDS011;52595;51.608;7.216;2023-12-22T07:38:02;18.67;;;2.42;;
65835;SDS011;52595;51.608;7.216;2023-12-22T07:40:30;14.23;;;3.03;;
65835;SDS011;52595;51.608;7.216;2023-12-22T07:42:56;13.40;;;2.75;;
65835;SDS011;52595;51.608;7.216;2023-12-22T07:45:24;16.90;;;2.60;;
65835;SDS011;52595;51.608;7.216;2023-12-22T07:47:50;12.40;;;2.53;;
65835;SDS011;52595;51.608;7.216;2023-12-22T07:50:15;15.60;;;2.50;;
65835;SDS011;52595;51.608;7.216;2023-12-22T07:52:40;14.65;;;3.17;;
65835;SDS011;52595;51.608;7.216;2023-12-22T07:55:06;10.13;;;3.22;;
65835;SDS011;52595;51.608;7.216;2023-12-22T07:57:35;14.63;;;2.83;;
65835;SDS011;52595;51.608;7.216;2023-12-22T08:00:01;12.25;;;3.13;;
65835;SDS011;52595;51.608;7.216;2023-12-22T08:02:28;10.45;;;2.75;;
65835;SDS011;52595;51.608;7.216;2023-12-22T08:04:53;13.95;;;3.60;;
65835;SDS011;52595;51.608;7.216;2023-12-22T08:07:18;8.70;;;2.92;;
65835;SDS011;52595;51.608;7.216;2023-12-22T08:09:44;13.38;;;2.63;;
65835;SDS011;52595;51.608;7.216;2023-12-22T08:12:09;18.92;;;3.05;;
65835;SDS011;52595;51.608;7.216;2023-12-22T08:14:35;15.35;;;3.10;;
65835;SDS011;52595;51.608;7.216;2023-12-22T08:17:00;11.65;;;3.20;;
65835;SDS011;52595;51.608;7.216;2023-12-22T08:19:25;11.18;;;2.22;;
65835;SDS011;52595;51.608;7.216;2023-12-22T08:21:54;7.30;;;1.83;;
65835;SDS011;52595;51.608;7.216;2023-12-22T08:24:19;13.18;;;2.60;;
65835;SDS011;52595;51.608;7.216;2023-12-22T08:26:45;17.80;;;2.60;;
65835;SDS011;52595;51.608;7.216;2023-12-22T08:29:10;11.75;;;1.88;;
65835;SDS011;52595;51.608;7.216;2023-12-22T08:31:36;8.57;;;1.90;;
65835;SDS011;52595;51.608;7.216;2023-12-22T08:34:01;11.07;;;2.65;;
65835;SDS011;52595;51.608;7.216;2023-12-22T08:36:27;12.02;;;2.50;;
65835;SDS011;52595;51.608;7.216;2023-12-22T08:38:52;10.40;;;2.10;;
65835;SDS011;52595;51.608;7.216;2023-12-22T08:41:17;20.27;;;3.05;;
65835;SDS011;52595;51.608;7.216;2023-12-22T08:43:43;18.50;;;2.78;;
65835;SDS011;52595;51.608;7.216;2023-12-22T08:46:09;16.63;;;2.85;;
65835;SDS011;52595;51.608;7.216;2023-12-22T08:48:35;13.73;;;2.75;;
65835;SDS011;52595;51.608;7.216;2023-12-22T08:51:01;21.23;;;3.53;;
65835;SDS011;52595;51.608;7.216;2023-12-22T08:53:26;11.13;;;2.85;;
65835;SDS011;52595;51.608;7.216;2023-12-22T08:55:55;13.48;;;2.80;;
65835;SDS011;52595;51.608;7.216;2023-12-22T08:58:21;16.75;;;3.15;;
65835;SDS011;52595;51.608;7.216;2023-12-22T09:00:46;16.40;;;3.38;;
65835;SDS011;52595;51.608;7.216;2023-12-22T09:03:12;16.95;;;3.72;;
65835;SDS011;52595;51.608;7.216;2023-12-22T09:05:37;18.67;;;2.70;;
65835;SDS011;52595;51.608;7.216;2023-12-22T09:08:03;23.60;;;2.47;;
65835;SDS011;52595;51.608;7.216;2023-12-22T09:10:29;20.45;;;3.85;;
65835;SDS011;52595;51.608;7.216;2023-12-22T09:12:54;10.77;;;2.70;;
65835;SDS011;52595;51.608;7.216;2023-12-22T09:15:20;14.27;;;3.08;;
65835;SDS011;52595;51.608;7.216;2023-12-22T09:17:45;20.30;;;3.67;;
65835;SDS011;52595;51.608;7.216;2023-12-22T09:20:11;17.05;;;3.13;;
65835;SDS011;52595;51.608;7.216;2023-12-22T09:22:37;18.73;;;3.55;;
65835;SDS011;52595;51.608;7.216;2023-12-22T09:25:02;17.48;;;3.65;;
65835;SDS011;52595;51.608;7.216;2023-12-22T09:27:28;16.55;;;3.80;;
65835;SDS011;52595;51.608;7.216;2023-12-22T09:29:56;15.38;;;3.10;;
65835;SDS011;52595;51.608;7.216;2023-12-22T09:32:25;13.98;;;2.70;;
65835;SDS011;52595;51.608;7.216;2023-12-22T09:34:51;18.05;;;3.47;;
65835;SDS011;52595;51.608;7.216;2023-12-22T09:37:17;13.30;;;2.75;;
65835;SDS011;52595;51.608;7.216;2023-12-22T09:39:42;12.88;;;3.00;;
65835;SDS011;52595;51.608;7.216;2023-12-22T09:42:08;16.27;;;3.53;;
65835;SDS011;52595;51.608;7.216;2023-12-22T09:44:33;18.83;;;3.40;;
65835;SDS011;52595;51.608;7.216;2023-12-22T09:47:02;13.73;;;2.75;;
65835;SDS011;52595;51.608;7.216;2023-12-22T09:49:29;13.52;;;2.80;;
65835;SDS011;52595;51.608;7.216;2023-12-22T09:51:55;14.73;;;2.85;;
65835;SDS011;52595;51.608;7.216;2023-12-22T09:54:22;11.23;;;2.47;;
65835;SDS011;52595;51.608;7.216;2023-12-22T09:56:48;10.10;;;2.30;;
65835;SDS011;52595;51.608;7.216;2023-12-22T09:59:16;10.90;;;2.30;;
65835;SDS011;52595;51.608;7.216;2023-12-22T10:01:43;11.70;;;2.40;;
65835;SDS011;52595;51.608;7.216;2023-12-22T10:04:12;12.43;;;2.78;;
65835;SDS011;52595;51.608;7.216;2023-12-22T10:06:38;10.55;;;2.20;;
65835;SDS011;52595;51.608;7.216;2023-12-22T10:09:07;13.93;;;1.98;;
65835;SDS011;52595;51.608;7.216;2023-12-22T10:11:33;11.70;;;2.30;;
65835;SDS011;52595;51.608;7.216;2023-12-22T10:14:01;10.05;;;2.03;;
65835;SDS011;52595;51.608;7.216;2023-12-22T10:16:27;8.65;;;2.33;;
65835;SDS011;52595;51.608;7.216;2023-12-22T10:18:53;14.73;;;3.70;;
65835;SDS011;52595;51.608;7.216;2023-12-22T10:21:18;9.77;;;2.70;;
65835;SDS011;52595;51.608;7.216;2023-12-22T10:23:44;13.52;;;2.78;;
65835;SDS011;52595;51.608;7.216;2023-12-22T10:26:12;12.43;;;2.90;;
65835;SDS011;52595;51.608;7.216;2023-12-22T10:28:38;11.20;;;2.90;;
65835;SDS011;52595;51.608;7.216;2023-12-22T10:31:03;13.82;;;3.50;;
65835;SDS011;52595;51.608;7.216;2023-12-22T10:33:31;12.07;;;3.55;;
65835;SDS011;52595;51.608;7.216;2023-12-22T10:35:58;17.85;;;3.45;;
65835;SDS011;52595;51.608;7.216;2023-12-22T10:38:33;12.82;;;2.38;;
65835;SDS011;52595;51.608;7.216;2023-12-22T10:41:02;12.90;;;2.70;;
65835;SDS011;52595;51.608;7.216;2023-12-22T10:43:28;10.80;;;3.35;;
65835;SDS011;52595;51.608;7.216;2023-12-22T10:45:53;13.85;;;4.07;;
65835;SDS011;52595;51.608;7.216;2023-12-22T10:48:19;14.02;;;3.30;;
65835;SDS011;52595;51.608;7.216;2023-12-22T10:50:44;10.15;;;2.78;;
65835;SDS011;52595;51.608;7.216;2023-12-22T10:53:12;8.95;;;2.55;;
65835;SDS011;52595;51.608;7.216;2023-12-22T10:55:37;7.97;;;2.53;;
65835;SDS011;52595;51.608;7.216;2023-12-22T10:58:03;15.57;;;3.92;;
65835;SDS011;52595;51.608;7.216;2023-12-22T11:00:30;15.05;;;3.78;;
65835;SDS011;52595;51.608;7.216;2023-12-22T11:02:59;10.30;;;3.08;;
65835;SDS011;52595;51.608;7.216;2023-12-22T11:05:28;16.60;;;3.67;;
65835;SDS011;52595;51.608;7.216;2023-12-22T11:07:54;14.35;;;3.53;;
65835;SDS011;52595;51.608;7.216;2023-12-22T11:10:20;10.30;;;2.90;;
65835;SDS011;52595;51.608;7.216;2023-12-22T11:12:46;9.77;;;3.00;;
65835;SDS011;52595;51.608;7.216;2023-12-22T11:15:12;9.13;;;2.40;;
65835;SDS011;52595;51.608;7.216;2023-12-22T11:17:41;9.95;;;2.63;;
65835;SDS011;52595;51.608;7.216;2023-12-22T11:20:08;8.23;;;2.55;;
65835;SDS011;52595;51.608;7.216;2023-12-22T11:22:35;8.32;;;2.20;;
65835;SDS011;52595;51.608;7.216;2023-12-22T11:25:02;13.80;;;2.80;;
65835;SDS011;52595;51.608;7.216;2023-12-22T11:27:28;5.88;;;1.90;;
65835;SDS011;52595;51.608;7.216;2023-12-22T11:29:54;11.13;;;2.53;;
65835;SDS011;52595;51.608;7.216;2023-12-22T11:32:20;8.57;;;1.92;;
65835;SDS011;52595;51.608;7.216;2023-12-22T11:34:46;9.25;;;1.95;;
65835;SDS011;52595;51.608;7.216;2023-12-22T11:37:12;11.18;;;2.60;;
65835;SDS011;52595;51.608;7.216;2023-12-22T11:39:42;2.28;;;1.25;;
65835;SDS011;52595;51.608;7.216;2023-12-22T11:42:10;5.97;;;1.35;;
65835;SDS011;52595;51.608;7.216;2023-12-22T11:44:39;5.13;;;1.70;;
65835;SDS011;52595;51.608;7.216;2023-12-22T11:49:32;3.92;;;1.42;;
65835;SDS011;52595;51.608;7.216;2023-12-22T11:51:59;4.05;;;1.45;;
65835;SDS011;52595;51.608;7.216;2023-12-22T11:54:46;3.28;;;1.52;;
65835;SDS011;52595;51.608;7.216;2023-12-22T11:57:37;4.00;;;1.70;;
65835;SDS011;52595;51.608;7.216;2023-12-22T12:00:03;4.75;;;1.52;;
65835;SDS011;52595;51.608;7.216;2023-12-22T12:02:35;5.90;;;1.80;;
65835;SDS011;52595;51.608;7.216;2023-12-22T12:05:02;6.05;;;1.55;;
65835;SDS011;52595;51.608;7.216;2023-12-22T12:07:47;5.55;;;1.88;;
65835;SDS011;52595;51.608;7.216;2023-12-22T12:13:09;7.47;;;1.85;;
65835;SDS011;52595;51.608;7.216;2023-12-22T12:15:35;7.10;;;2.88;;
65835;SDS011;52595;51.608;7.216;2023-12-22T12:18:02;8.23;;;2.00;;
65835;SDS011;52595;51.608;7.216;2023-12-22T12:20:28;10.27;;;2.60;;
65835;SDS011;52595;51.608;7.216;2023-12-22T12:22:53;6.72;;;2.65;;
65835;SDS011;52595;51.608;7.216;2023-12-22T12:25:22;11.45;;;2.63;;
65835;SDS011;52595;51.608;7.216;2023-12-22T12:27:50;6.78;;;2.22;;
65835;SDS011;52595;51.608;7.216;2023-12-22T12:30:37;6.40;;;2.17;;
65835;SDS011;52595;51.608;7.216;2023-12-22T12:33:07;5.50;;;1.90;;
65835;SDS011;52595;51.608;7.216;2023-12-22T12:35:33;7.57;;;2.40;;
65835;SDS011;52595;51.608;7.216;2023-12-22T12:38:00;9.55;;;2.55;;
65835;SDS011;52595;51.608;7.216;2023-12-22T12:40:27;8.63;;;2.38;;
65835;SDS011;52595;51.608;7.216;2023-12-22T12:42:54;5.32;;;1.52;;
65835;SDS011;52595;51.608;7.216;2023-12-22T12:45:24;4.63;;;1.40;;
65835;SDS011;52595;51.608;7.216;2023-12-22T12:48:00;5.28;;;1.30;;
65835;SDS011;52595;51.608;7.216;2023-12-22T12:50:26;3.50;;;1.40;;
65835;SDS011;52595;51.608;7.216;2023-12-22T12:52:53;4.45;;;1.63;;
65835;SDS011;52595;51.608;7.216;2023-12-22T12:55:20;4.38;;;1.73;;
65835;SDS011;52595;51.608;7.216;2023-12-22T12:57:49;6.10;;;2.03;;
65835;SDS011;52595;51.608;7.216;2023-12-22T13:00:24;6.60;;;2.17;;
65835;SDS011;52595;51.608;7.216;2023-12-22T13:02:51;7.32;;;2.40;;
65835;SDS011;52595;51.608;7.216;2023-12-22T13:05:24;6.85;;;2.30;;
65835;SDS011;52595;51.608;7.216;2023-12-22T13:07:51;6.28;;;2.33;;
65835;SDS011;52595;51.608;7.216;2023-12-22T13:10:20;11.32;;;2.67;;
65835;SDS011;52595;51.608;7.216;2023-12-22T13:12:50;8.98;;;2.40;;
65835;SDS011;52595;51.608;7.216;2023-12-22T13:15:15;5.25;;;2.00;;
65835;SDS011;52595;51.608;7.216;2023-12-22T13:17:42;5.05;;;2.10;;
65835;SDS011;52595;51.608;7.216;2023-12-22T13:20:09;3.83;;;1.30;;
65835;SDS011;52595;51.608;7.216;2023-12-22T13:22:35;6.75;;;1.45;;
65835;SDS011;52595;51.608;7.216;2023-12-22T13:25:00;4.18;;;1.98;;
65835;SDS011;52595;51.608;7.216;2023-12-22T13:27:26;5.90;;;1.58;;
65835;SDS011;52595;51.608;7.216;2023-12-22T13:29:51;5.60;;;2.00;;
65835;SDS011;52595;51.608;7.216;2023-12-22T13:32:19;2.25;;;1.23;;
65835;SDS011;52595;51.608;7.216;2023-12-22T13:34:49;2.35;;;1.30;;
65835;SDS011;52595;51.608;7.216;2023-12-22T13:37:16;3.85;;;1.40;;
65835;SDS011;52595;51.608;7.216;2023-12-22T13:39:41;2.47;;;1.40;;
65835;SDS011;52595;51.608;7.216;2023-12-22T13:42:13;6.53;;;2.13;;
65835;SDS011;52595;51.608;7.216;2023-12-22T13:44:44;7.72;;;1.85;;
65835;SDS011;52595;51.608;7.216;2023-12-22T13:47:12;5.82;;;1.85;;
65835;SDS011;52595;51.608;7.216;2023-12-22T13:49:38;7.47;;;1.83;;
65835;SDS011;52595;51.608;7.216;2023-12-22T13:52:04;7.68;;;2.10;;
65835;SDS011;52595;51.608;7.216;2023-12-22T13:54:33;7.82;;;2.17;;
65835;SDS011;52595;51.608;7.216;2023-12-22T13:56:59;10.50;;;2.40;;
65835;SDS011;52595;51.608;7.216;2023-12-22T13:59:31;7.20;;;2.13;;
65835;SDS011;52595;51.608;7.216;2023-12-22T14:01:58;11.75;;;2.42;;
65835;SDS011;52595;51.608;7.216;2023-12-22T14:04:23;8.05;;;2.95;;
65835;SDS011;52595;51.608;7.216;2023-12-22T14:06:49;9.38;;;2.95;;
65835;SDS011;52595;51.608;7.216;2023-12-22T14:09:14;8.05;;;2.20;;
65835;SDS011;52595;51.608;7.216;2023-12-22T14:11:42;8.88;;;2.75;;
65835;SDS011;52595;51.608;7.216;2023-12-22T14:14:08;7.05;;;2.05;;
65835;SDS011;52595;51.608;7.216;2023-12-22T14:16:33;6.57;;;2.17;;
65835;SDS011;52595;51.608;7.216;2023-12-22T14:18:58;6.05;;;2.20;;
65835;SDS011;52595;51.608;7.216;2023-12-22T14:21:24;7.60;;;2.10;;
65835;SDS011;52595;51.608;7.216;2023-12-22T14:23:49;6.75;;;1.55;;
65835;SDS011;52595;51.608;7.216;2023-12-22T14:26:15;2.95;;;1.63;;
65835;SDS011;52595;51.608;7.216;2023-12-22T14:28:41;3.92;;;1.60;;
65835;SDS011;52595;51.608;7.216;2023-12-22T14:31:07;6.05;;;1.35;;
65835;SDS011;52595;51.608;7.216;2023-12-22T14:33:32;8.52;;;1.80;;
65835;SDS011;52595;51.608;7.216;2023-12-22T14:35:57;6.53;;;1.60;;
65835;SDS011;52595;51.608;7.216;2023-12-22T14:38:23;3.92;;;1.42;;
65835;SDS011;52595;51.608;7.216;2023-12-22T14:40:48;4.97;;;1.50;;
65835;SDS011;52595;51.608;7.216;2023-12-22T14:43:13;8.77;;;2.03;;
65835;SDS011;52595;51.608;7.216;2023-12-22T14:45:39;6.45;;;2.05;;
65835;SDS011;52595;51.608;7.216;2023-12-22T14:48:04;9.70;;;1.70;;
65835;SDS011;52595;51.608;7.216;2023-12-22T14:50:30;5.53;;;1.50;;